Terminal Aerodrome Forecast
Issued by NWS Jacksonville, FL

Home | Current Version | Previous Version | Text Only | Print | Product List | Glossary On
Versions: 1 2 3 4 5 6 7 8 9 10 11 12 13 14 15 16 17
286
FTUS42 KJAX 200540
TAFJAX
TAF
KJAX 200540Z 2006/2106 35004KT P6SM FEW250
     FM201500 06012KT P6SM SCT035
     FM202300 07004KT P6SM SCT030 BKN040=

USA.gov is the U.S. government's official web portal to all federal, state and local government web resources and services.